Time;durP1;ratioP1;P1;durP2;ratioP2;P2;SDS_P1;SDS_P2;PMS_P1;PMS_P2;Temp;Humidity;BMP_temperature;BMP_pressure;BME280_temperature;BME280_humidity;BME280_pressure;Samples;Min_cycle;Max_cycle;Signal;HPM_P1;HPM_P2
2021/11/13 00:00:36;;;;;;;;;;;;;;;11.01;61.26;100634.88;4844376;28;98138;-58
2021/11/13 00:03:02;;;;;;;;;;;;;;;11.00;60.64;100627.84;4864921;28;121872;-58
2021/11/13 00:05:28;;;;;;;;;;;;;;;10.99;61.18;100623.50;4848124;28;127345;-58
2021/11/13 00:07:54;;;;;;;;;;;;;;;10.99;61.08;100628.09;4846665;28;126968;-68
2021/11/13 00:10:26;;;;;;;;;;;;;;;10.98;60.94;100623.78;4885067;28;97854;-58
2021/11/13 00:12:52;;;;;;;;;;;;;;;10.96;61.04;100626.72;4885998;28;99101;-66
2021/11/13 00:15:21;;;;;;;;;;;;;;;10.96;60.99;100632.13;4885206;28;112275;-68
2021/11/13 00:17:48;;;;;;;;;;;;;;;10.95;60.91;100616.22;4884945;28;98032;-59
2021/11/13 00:20:13;;;;;;;;;;;;;;;10.93;60.90;100624.59;4884079;28;97725;-58
2021/11/13 00:22:40;;;;;;;;;;;;;;;10.93;61.30;100623.78;4883515;28;128965;-58
2021/11/13 00:25:06;;;;;;;;;;;;;;;10.93;60.86;100623.78;4867544;28;98412;-58
2021/11/13 00:27:32;;;;;;;;;;;;;;;10.91;60.75;100629.44;4881153;28;126151;-68
2021/11/13 00:29:58;;;;;;;;;;;;;;;10.91;60.97;100620.53;4873720;28;122589;-58
2021/11/13 00:32:24;;;;;;;;;;;;;;;10.90;60.90;100616.22;4864081;28;98331;-58
2021/11/13 00:34:49;;;;;;;;;;;;;;;10.89;61.00;100609.22;4852228;28;98512;-58
2021/11/13 00:37:15;;;;;;;;;;;;;;;10.87;61.11;100606.75;4881510;28;124094;-58
2021/11/13 00:39:41;;;;;;;;;;;;;;;10.88;60.90;100615.66;4880489;28;118631;-58
2021/11/13 00:42:07;;;;;;;;;;;;;;;10.86;60.75;100621.31;4881252;28;128702;-68
2021/11/13 00:44:34;;;;;;;;;;;;;;;10.84;61.23;100615.38;4882296;28;128722;-58
2021/11/13 00:47:01;;;;;;;;;;;;;;;10.85;60.56;100619.72;4884270;28;98181;-68
2021/11/13 00:49:27;;;;;;;;;;;;;;;10.84;61.20;100620.78;4882632;28;98039;-58
2021/11/13 00:51:53;;;;;;;;;;;;;;;10.83;60.68;100624.56;4883793;28;98331;-58
2021/11/13 00:54:19;;;;;;;;;;;;;;;10.82;60.40;100631.03;4882473;28;126888;-59
2021/11/13 00:56:46;;;;;;;;;;;;;;;10.81;60.88;100630.22;4882442;28;114759;-68
2021/11/13 00:59:13;;;;;;;;;;;;;;;10.80;60.81;100631.28;4867058;28;100420;-58
2021/11/13 01:01:39;;;;;;;;;;;;;;;10.80;60.82;100628.56;4866209;28;98658;-58
2021/11/13 01:04:05;;;;;;;;;;;;;;;10.80;60.79;100633.16;4864116;28;124880;-68
2021/11/13 01:06:31;;;;;;;;;;;;;;;10.79;61.03;100636.94;4861993;28;128662;-58
2021/11/13 01:08:57;;;;;;;;;;;;;;;10.78;61.15;100638.81;4864906;28;97780;-58
2021/11/13 01:11:23;;;;;;;;;;;;;;;10.78;60.53;100640.72;4863231;28;128122;-58
2021/11/13 01:13:49;;;;;;;;;;;;;;;10.77;61.10;100631.81;4862800;28;128840;-68
2021/11/13 01:16:16;;;;;;;;;;;;;;;10.77;61.05;100639.09;4863312;28;112030;-68
2021/11/13 01:18:42;;;;;;;;;;;;;;;10.76;60.55;100632.88;4860867;28;98092;-68
2021/11/13 01:21:08;;;;;;;;;;;;;;;10.77;61.10;100639.09;4863126;28;98677;-69
2021/11/13 01:23:34;;;;;;;;;;;;;;;10.78;60.64;100633.44;4881831;28;127486;-59
2021/11/13 01:26:00;;;;;;;;;;;;;;;10.77;60.79;100628.31;4882092;28;98240;-58
2021/11/13 01:28:26;;;;;;;;;;;;;;;10.77;60.98;100631.81;4809542;28;1827191;-68
2021/11/13 01:30:52;;;;;;;;;;;;;;;10.78;60.75;100629.94;4864002;28;123509;-69
2021/11/13 01:33:18;;;;;;;;;;;;;;;10.78;60.69;100625.34;4866033;28;98504;-59
2021/11/13 01:35:44;;;;;;;;;;;;;;;10.78;60.33;100621.84;4874045;28;126353;-58
2021/11/13 01:38:10;;;;;;;;;;;;;;;10.78;60.35;100630.75;4882567;28;123205;-59
2021/11/13 01:40:36;;;;;;;;;;;;;;;10.78;60.83;100630.75;4882948;28;127951;-59
2021/11/13 01:43:02;;;;;;;;;;;;;;;10.78;60.72;100622.66;4856087;28;127988;-68
2021/11/13 01:45:28;;;;;;;;;;;;;;;10.76;60.60;100611.31;4867318;28;127709;-68
2021/11/13 01:47:54;;;;;;;;;;;;;;;10.78;60.71;100617.25;4875108;28;97775;-58
2021/11/13 01:50:25;;;;;;;;;;;;;;;10.78;60.26;100619.16;4847965;28;98427;-68
2021/11/13 01:52:51;;;;;;;;;;;;;;;10.78;60.39;100617.25;4865929;28;98424;-59
2021/11/13 01:55:18;;;;;;;;;;;;;;;10.78;60.74;100616.44;4846868;28;100584;-68
2021/11/13 01:57:45;;;;;;;;;;;;;;;10.77;60.08;100612.16;4863111;28;98075;-67
2021/11/13 02:00:13;;;;;;;;;;;;;;;10.77;60.59;100615.66;4884387;28;98272;-67
2021/11/13 02:02:40;;;;;;;;;;;;;;;10.75;60.66;100604.31;4876628;28;122650;-59
2021/11/13 02:05:06;;;;;;;;;;;;;;;10.76;60.23;100605.09;4876463;28;98326;-68
2021/11/13 02:07:32;;;;;;;;;;;;;;;10.76;60.39;100614.00;4875214;28;116548;-68
2021/11/13 02:09:58;;;;;;;;;;;;;;;10.75;60.34;100611.59;4865041;28;98133;-69
2021/11/13 02:12:23;;;;;;;;;;;;;;;10.75;60.50;100616.97;4869783;28;127689;-68
2021/11/13 02:14:49;;;;;;;;;;;;;;;10.75;60.21;100616.97;4854077;28;126784;-59
2021/11/13 02:17:15;;;;;;;;;;;;;;;10.75;60.70;100619.66;4848187;28;123023;-59
2021/11/13 02:19:41;;;;;;;;;;;;;;;10.75;60.25;100606.19;4865705;28;127175;-65
2021/11/13 02:22:07;;;;;;;;;;;;;;;10.73;60.72;100606.47;4880596;28;128044;-67
2021/11/13 02:24:33;;;;;;;;;;;;;;;10.73;60.18;100622.66;4884172;28;126476;-59
2021/11/13 02:26:59;;;;;;;;;;;;;;;10.73;60.80;100624.53;4883064;28;122721;-67
2021/11/13 02:29:25;;;;;;;;;;;;;;;10.73;60.58;100624.53;4875915;28;128625;-59
2021/11/13 02:31:51;;;;;;;;;;;;;;;10.72;60.62;100617.50;4886753;28;98978;-59
2021/11/13 02:34:17;;;;;;;;;;;;;;;10.71;60.55;100605.09;4885915;28;98687;-58
2021/11/13 02:36:43;;;;;;;;;;;;;;;10.70;60.55;100615.06;4887664;28;108007;-59
2021/11/13 02:39:11;;;;;;;;;;;;;;;10.71;60.78;100623.97;4868665;28;119566;-59
2021/11/13 02:41:37;;;;;;;;;;;;;;;10.69;60.46;100618.84;4867000;28;97959;-58
2021/11/13 02:44:04;;;;;;;;;;;;;;;10.70;60.28;100620.47;4866986;28;109006;-68
2021/11/13 02:46:30;;;;;;;;;;;;;;;10.70;60.73;100625.84;4866702;28;97821;-68
2021/11/13 02:48:56;;;;;;;;;;;;;;;10.70;60.36;100620.47;4868162;28;98576;-59
2021/11/13 02:51:22;;;;;;;;;;;;;;;10.68;60.78;100619.91;4868241;28;98662;-58
2021/11/13 02:53:52;;;;;;;;;;;;;;;10.69;60.31;100620.72;4866441;28;127686;-66
2021/11/13 02:56:18;;;;;;;;;;;;;;;10.66;60.23;100622.06;4869295;28;97765;-68
2021/11/13 02:58:44;;;;;;;;;;;;;;;10.69;60.41;100623.41;4866332;28;121026;-59
2021/11/13 03:01:16;;;;;;;;;;;;;;;10.67;60.47;100626.38;4866404;28;121965;-58
2021/11/13 03:03:42;;;;;;;;;;;;;;;10.66;60.02;100622.06;4876493;28;98425;-58
2021/11/13 03:06:11;;;;;;;;;;;;;;;10.66;60.31;100619.38;4884866;28;123560;-59
2021/11/13 03:08:37;;;;;;;;;;;;;;;10.66;60.54;100626.66;4886347;28;99064;-59
2021/11/13 03:11:06;;;;;;;;;;;;;;;10.64;60.04;100616.13;4880009;28;98644;-68
2021/11/13 03:13:33;;;;;;;;;;;;;;;10.63;60.50;100614.50;4886952;28;98000;-68
2021/11/13 03:15:59;;;;;;;;;;;;;;;10.62;60.00;100620.97;4884824;28;118895;-69
2021/11/13 03:18:25;;;;;;;;;;;;;;;10.62;60.32;100620.16;4881730;28;123623;-59
2021/11/13 03:20:51;;;;;;;;;;;;;;;10.61;60.49;100613.13;4884864;28;98542;-59
2021/11/13 03:23:17;;;;;;;;;;;;;;;10.60;60.20;100611.53;4881891;28;110487;-68
2021/11/13 03:25:59;;;;;;;;;;;;;;;10.57;59.96;100607.47;4884513;28;97858;-68
2021/11/13 03:28:25;;;;;;;;;;;;;;;10.56;60.42;100605.84;4883872;28;98146;-68
2021/11/13 03:30:52;;;;;;;;;;;;;;;10.55;60.58;100604.22;4885806;28;99033;-68
2021/11/13 03:33:18;;;;;;;;;;;;;;;10.54;59.96;100605.31;4885709;28;98185;-68
2021/11/13 03:35:44;;;;;;;;;;;;;;;10.53;60.44;100603.66;4886716;28;98240;-59
2021/11/13 03:38:12;;;;;;;;;;;;;;;10.51;60.27;100601.25;4884236;28;98441;-59
2021/11/13 03:40:39;;;;;;;;;;;;;;;10.50;59.78;100599.63;4865556;28;98858;-68
2021/11/13 03:43:05;;;;;;;;;;;;;;;10.49;59.96;100603.41;4866866;28;99444;-59
2021/11/13 03:45:31;;;;;;;;;;;;;;;10.48;60.45;100600.97;4864321;28;122759;-58
2021/11/13 03:47:57;;;;;;;;;;;;;;;10.47;60.29;100602.84;4873432;28;122600;-59
2021/11/13 03:50:23;;;;;;;;;;;;;;;10.46;60.47;100598.53;4884144;28;98414;-58
2021/11/13 03:52:50;;;;;;;;;;;;;;;10.47;60.16;100599.34;4885242;28;127775;-58
2021/11/13 03:55:16;;;;;;;;;;;;;;;10.46;60.17;100601.25;4885815;28;98142;-58
2021/11/13 03:57:42;;;;;;;;;;;;;;;10.45;60.31;100599.63;4884773;28;126270;-59
2021/11/13 04:00:08;;;;;;;;;;;;;;;10.45;60.17;100599.63;4883885;28;127002;-59
2021/11/13 04:02:34;;;;;;;;;;;;;;;10.46;60.14;100606.63;4882992;28;122537;-59
2021/11/13 04:05:00;;;;;;;;;;;;;;;10.45;59.86;100606.88;4879449;28;122146;-68
2021/11/13 04:07:26;;;;;;;;;;;;;;;10.46;60.21;100611.22;4874807;28;127104;-68
2021/11/13 04:09:52;;;;;;;;;;;;;;;10.46;60.25;100597.75;4883621;28;100168;-69
2021/11/13 04:12:17;;;;;;;;;;;;;;;10.46;59.85;100600.44;4884186;28;108683;-69
2021/11/13 04:14:45;;;;;;;;;;;;;;;10.46;60.16;100595.84;4885084;28;122434;-58
2021/11/13 04:17:11;;;;;;;;;;;;;;;10.46;60.62;100592.34;4884909;28;98561;-59
2021/11/13 04:19:37;;;;;;;;;;;;;;;10.46;60.52;100598.53;4884767;28;112495;-58
2021/11/13 04:22:03;;;;;;;;;;;;;;;10.47;60.05;100594.78;4886066;28;112001;-68
2021/11/13 04:24:29;;;;;;;;;;;;;;;10.46;60.04;100593.16;4882016;28;123599;-59
2021/11/13 04:26:55;;;;;;;;;;;;;;;10.47;59.90;100591.25;4883498;28;127933;-58
2021/11/13 04:29:21;;;;;;;;;;;;;;;10.47;60.49;100589.38;4884631;28;123827;-59
2021/11/13 04:31:47;;;;;;;;;;;;;;;10.48;60.14;100599.06;4883548;28;126829;-59
2021/11/13 04:34:18;;;;;;;;;;;;;;;10.48;60.22;100592.88;4884965;28;98046;-58
2021/11/13 04:36:46;;;;;;;;;;;;;;;10.48;59.81;100596.38;4883600;28;100679;-59
2021/11/13 04:39:12;;;;;;;;;;;;;;;10.49;60.15;100594.50;4869386;28;98571;-67
2021/11/13 04:41:39;;;;;;;;;;;;;;;10.49;60.06;100594.50;4885078;28;97702;-68
2021/11/13 04:44:05;;;;;;;;;;;;;;;10.50;60.05;100594.25;4847975;28;120473;-68
2021/11/13 04:46:31;;;;;;;;;;;;;;;10.51;60.49;100597.75;4865312;28;125932;-59
2021/11/13 04:48:57;;;;;;;;;;;;;;;10.50;60.53;100596.94;4880447;28;123173;-69
2021/11/13 04:51:23;;;;;;;;;;;;;;;10.52;60.13;100591.28;4884837;28;121540;-68
2021/11/13 04:53:49;;;;;;;;;;;;;;;10.52;60.39;100583.19;4866015;28;112078;-68
2021/11/13 04:56:15;;;;;;;;;;;;;;;10.52;60.32;100586.69;4866707;28;98398;-68
2021/11/13 04:58:41;;;;;;;;;;;;;;;10.52;60.18;100581.31;4871280;28;128929;-68
2021/11/13 05:01:07;;;;;;;;;;;;;;;10.53;60.15;100576.72;4883573;28;102661;-59
2021/11/13 05:03:33;;;;;;;;;;;;;;;10.53;60.35;100571.31;4877544;28;97888;-69
2021/11/13 05:05:59;;;;;;;;;;;;;;;10.54;60.00;100568.38;4848929;28;98676;-68
2021/11/13 05:08:25;;;;;;;;;;;;;;;10.54;60.56;100565.69;4867025;28;129235;-58
2021/11/13 05:10:51;;;;;;;;;;;;;;;10.54;60.07;100559.50;4882045;28;120676;-68
2021/11/13 05:13:18;;;;;;;;;;;;;;;10.55;60.07;100561.09;4886616;28;97704;-68
2021/11/13 05:15:44;;;;;;;;;;;;;;;10.55;60.08;100558.41;4866934;28;98320;-67
2021/11/13 05:18:10;;;;;;;;;;;;;;;10.56;59.93;100554.63;4867224;28;98223;-68
2021/11/13 05:20:36;;;;;;;;;;;;;;;10.57;60.20;100550.84;4865989;28;117633;-68
2021/11/13 05:23:02;;;;;;;;;;;;;;;10.56;59.91;100550.03;4866763;28;110476;-59
2021/11/13 05:25:28;;;;;;;;;;;;;;;10.57;60.13;100540.91;4883899;28;128330;-59
2021/11/13 05:27:54;;;;;;;;;;;;;;;10.59;60.48;100542.53;4864287;28;128898;-68
2021/11/13 05:30:21;;;;;;;;;;;;;;;10.58;59.74;100539.03;4884336;28;98332;-58
2021/11/13 05:32:47;;;;;;;;;;;;;;;10.60;59.77;100536.84;4869909;28;97888;-58
2021/11/13 05:35:14;;;;;;;;;;;;;;;10.61;60.63;100538.50;4863298;28;128305;-59
2021/11/13 05:37:40;;;;;;;;;;;;;;;10.62;60.48;100537.41;4869031;28;99187;-59
2021/11/13 05:40:07;;;;;;;;;;;;;;;10.63;60.09;100532.81;4863075;28;97932;-58
2021/11/13 05:42:34;;;;;;;;;;;;;;;10.62;60.32;100540.09;4880162;28;115965;-59
2021/11/13 05:45:00;;;;;;;;;;;;;;;10.65;59.87;100554.91;4880656;28;98381;-59
2021/11/13 05:47:26;;;;;;;;;;;;;;;10.65;60.23;100553.06;4881398;28;98202;-59
2021/11/13 05:49:52;;;;;;;;;;;;;;;10.66;60.17;100557.38;4880498;28;98169;-58
2021/11/13 05:52:18;;;;;;;;;;;;;;;10.67;60.36;100558.97;4862241;28;97914;-58
2021/11/13 05:54:44;;;;;;;;;;;;;;;10.69;59.97;100566.78;4880041;28;114178;-59
2021/11/13 05:57:10;;;;;;;;;;;;;;;10.70;60.60;100566.53;4879161;28;114967;-59
2021/11/13 05:59:36;;;;;;;;;;;;;;;10.71;59.89;100570.06;4877286;28;97879;-58
2021/11/13 06:02:02;;;;;;;;;;;;;;;10.72;60.58;100564.38;4861345;28;123425;-58
2021/11/13 06:04:28;;;;;;;;;;;;;;;10.73;60.28;100574.13;4860974;28;125042;-59
2021/11/13 06:06:53;;;;;;;;;;;;;;;10.74;60.50;100564.94;4879589;28;99276;-59
2021/11/13 06:09:19;;;;;;;;;;;;;;;10.75;60.04;100563.84;4894096;28;126248;-58
2021/11/13 06:11:45;;;;;;;;;;;;;;;10.76;60.34;100565.47;4899773;28;123020;-58
2021/11/13 06:14:11;;;;;;;;;;;;;;;10.79;60.25;100569.53;4902346;28;127446;-58
2021/11/13 06:16:37;;;;;;;;;;;;;;;10.80;59.93;100563.06;4894660;28;128530;-58
2021/11/13 06:19:03;;;;;;;;;;;;;;;10.82;60.16;100566.31;4898001;28;125641;-58
2021/11/13 06:21:29;;;;;;;;;;;;;;;10.83;60.22;100562.53;4879007;28;122557;-58
2021/11/13 06:23:55;;;;;;;;;;;;;;;10.86;60.20;100567.41;4881397;28;116321;-58
2021/11/13 06:26:21;;;;;;;;;;;;;;;10.88;60.48;100572.50;4891125;28;127648;-59
2021/11/13 06:28:47;;;;;;;;;;;;;;;10.91;60.23;100571.97;4891163;28;99142;-58
2021/11/13 06:31:13;;;;;;;;;;;;;;;10.92;60.37;100576.28;4898580;28;111664;-58
2021/11/13 06:33:39;;;;;;;;;;;;;;;10.94;60.40;100580.34;4888149;28;98910;-58
2021/11/13 06:36:05;;;;;;;;;;;;;;;10.97;60.10;100585.22;4898295;28;125883;-58
2021/11/13 06:38:31;;;;;;;;;;;;;;;10.99;60.34;100574.16;4878923;28;98324;-58
2021/11/13 06:40:57;;;;;;;;;;;;;;;11.01;60.58;100577.41;4892684;28;117460;-58
2021/11/13 06:43:23;;;;;;;;;;;;;;;11.03;60.58;100586.84;4886404;28;127874;-59
2021/11/13 06:45:49;;;;;;;;;;;;;;;11.06;59.92;100596.28;4884058;28;128125;-58
2021/11/13 06:48:16;;;;;;;;;;;;;;;11.07;60.56;100593.31;4895105;28;98291;-58
2021/11/13 06:50:42;;;;;;;;;;;;;;;11.10;60.38;100601.97;4879238;28;98202;-58
2021/11/13 06:53:08;;;;;;;;;;;;;;;11.11;59.94;100599.00;4897535;28;98883;-58
2021/11/13 06:55:34;;;;;;;;;;;;;;;11.14;60.18;100600.34;4894644;28;127132;-58
2021/11/13 06:58:00;;;;;;;;;;;;;;;11.16;60.32;100611.66;4887123;28;128996;-58
2021/11/13 07:00:26;;;;;;;;;;;;;;;11.18;60.64;100610.34;4895705;28;97956;-58
2021/11/13 07:02:57;;;;;;;;;;;;;;;11.19;60.02;100611.94;4897606;28;102024;-59
2021/11/13 07:05:23;;;;;;;;;;;;;;;11.22;60.52;100614.13;4896532;28;98801;-58
2021/11/13 07:07:49;;;;;;;;;;;;;;;11.25;60.21;100615.47;4893368;28;127859;-58
2021/11/13 07:10:15;;;;;;;;;;;;;;;11.27;60.43;100618.72;4898045;28;109980;-58
2021/11/13 07:12:41;;;;;;;;;;;;;;;11.29;60.50;100616.56;4896898;28;99093;-58
2021/11/13 07:15:07;;;;;;;;;;;;;;;11.31;60.54;100617.09;4895640;28;123914;-58
2021/11/13 07:17:33;;;;;;;;;;;;;;;11.33;60.43;100614.16;4892198;28;98872;-58
2021/11/13 07:19:59;;;;;;;;;;;;;;;11.36;60.52;100616.28;4898979;28;122501;-58
2021/11/13 07:22:25;;;;;;;;;;;;;;;11.36;60.17;100617.13;4895422;28;128069;-58
2021/11/13 07:24:51;;;;;;;;;;;;;;;11.39;60.57;100613.84;4891818;28;98507;-58
2021/11/13 07:27:17;;;;;;;;;;;;;;;11.42;60.42;100615.22;4880571;28;122312;-58
2021/11/13 07:29:47;;;;;;;;;;;;;;;11.45;60.57;100612.00;4899587;28;98004;-58
2021/11/13 07:32:14;;;;;;;;;;;;;;;11.49;60.29;100615.78;4894358;28;99281;-58
2021/11/13 07:34:41;;;;;;;;;;;;;;;11.52;60.56;100620.63;4898536;28;99543;-58
2021/11/13 07:37:08;;;;;;;;;;;;;;;11.54;60.56;100619.28;4898089;28;98799;-59
2021/11/13 07:39:34;;;;;;;;;;;;;;;11.59;60.49;100618.44;4894587;28;112989;-68
2021/11/13 07:42:00;;;;;;;;;;;;;;;11.62;60.45;100623.31;4881770;28;124162;-67
2021/11/13 07:44:26;;;;;;;;;;;;;;;11.64;60.31;100625.75;4899772;28;127551;-68
2021/11/13 07:46:52;;;;;;;;;;;;;;;11.68;60.68;100614.16;4875637;28;123191;-58
2021/11/13 07:49:17;;;;;;;;;;;;;;;11.73;60.54;100621.44;4875091;28;111473;-59
2021/11/13 07:51:43;;;;;;;;;;;;;;;11.77;60.31;100620.63;4876857;28;128102;-59
2021/11/13 07:54:12;;;;;;;;;;;;;;;11.81;60.25;100626.28;4880122;28;127530;-59
2021/11/13 07:56:38;;;;;;;;;;;;;;;11.86;60.62;100628.19;4884448;28;97931;-68
2021/11/13 07:59:04;;;;;;;;;;;;;;;11.91;60.43;100628.22;4865738;28;98058;-59
2021/11/13 08:01:30;;;;;;;;;;;;;;;11.94;60.48;100630.34;4901130;28;128194;-68
2021/11/13 08:03:56;;;;;;;;;;;;;;;11.97;60.31;100629.81;4887021;28;126637;-68
2021/11/13 08:06:22;;;;;;;;;;;;;;;12.02;60.41;100630.63;4883259;28;125795;-59
2021/11/13 08:08:48;;;;;;;;;;;;;;;12.06;60.73;100638.16;4899594;28;97968;-59
2021/11/13 08:11:14;;;;;;;;;;;;;;;12.09;60.73;100632.22;4883157;28;98394;-59
2021/11/13 08:13:42;;;;;;;;;;;;;;;12.11;60.96;100636.28;4885514;28;124855;-59
2021/11/13 08:16:08;;;;;;;;;;;;;;;12.13;60.72;100638.69;4893728;28;97958;-59
2021/11/13 08:18:34;;;;;;;;;;;;;;;12.15;60.67;100637.34;4896129;28;115826;-68
2021/11/13 08:21:01;;;;;;;;;;;;;;;12.17;60.85;100637.88;4897382;28;121628;-59
2021/11/13 08:23:27;;;;;;;;;;;;;;;12.18;60.82;100634.13;4894504;28;98139;-59
2021/11/13 08:25:53;;;;;;;;;;;;;;;12.24;60.47;100643.00;4894194;28;128295;-68
2021/11/13 08:28:19;;;;;;;;;;;;;;;12.26;60.71;100638.97;4904843;28;97809;-68
2021/11/13 08:30:45;;;;;;;;;;;;;;;12.29;60.74;100632.16;4902701;28;127462;-67
2021/11/13 08:33:11;;;;;;;;;;;;;;;12.33;60.92;100635.13;4898010;28;127686;-59
2021/11/13 08:35:38;;;;;;;;;;;;;;;12.35;60.81;100639.19;4890822;28;103061;-68
2021/11/13 08:38:05;;;;;;;;;;;;;;;12.39;60.95;100636.75;4882164;28;97966;-68
2021/11/13 08:40:31;;;;;;;;;;;;;;;12.42;60.86;100641.63;4883783;28;98581;-59
2021/11/13 08:42:57;;;;;;;;;;;;;;;12.46;60.93;100640.00;4888192;28;97830;-58
2021/11/13 08:45:23;;;;;;;;;;;;;;;12.51;60.76;100640.75;4893939;28;117602;-68
2021/11/13 08:47:49;;;;;;;;;;;;;;;12.55;60.84;100641.03;4898295;28;121878;-59
2021/11/13 08:50:20;;;;;;;;;;;;;;;12.61;60.78;100647.22;4897827;28;110071;-67
2021/11/13 08:52:49;;;;;;;;;;;;;;;12.68;60.71;100645.03;4878400;28;98778;-58
2021/11/13 08:55:15;;;;;;;;;;;;;;;12.76;60.61;100641.75;4901172;28;98137;-59
2021/11/13 08:57:44;;;;;;;;;;;;;;;12.85;60.67;100641.97;4895008;28;98100;-59
2021/11/13 09:00:11;;;;;;;;;;;;;;;12.91;60.66;100640.88;4876199;28;125591;-59
2021/11/13 09:02:37;;;;;;;;;;;;;;;12.98;60.71;100653.00;4888965;28;114663;-59
2021/11/13 09:05:04;;;;;;;;;;;;;;;13.06;60.63;100646.19;4897498;28;98550;-59
2021/11/13 09:07:30;;;;;;;;;;;;;;;13.12;60.65;100646.97;4893752;28;119179;-59
2021/11/13 09:09:55;;;;;;;;;;;;;;;13.18;60.75;100645.88;4893394;28;127918;-68
2021/11/13 09:12:26;;;;;;;;;;;;;;;13.23;60.42;100640.44;4893051;28;126472;-59
2021/11/13 09:14:54;;;;;;;;;;;;;;;13.30;60.64;100637.44;4900145;28;98465;-68
2021/11/13 09:17:20;;;;;;;;;;;;;;;13.38;60.27;100644.94;4900103;28;100783;-68
2021/11/13 09:19:47;;;;;;;;;;;;;;;13.44;60.43;100641.09;4878257;28;101039;-68
2021/11/13 09:22:13;;;;;;;;;;;;;;;13.50;60.33;100648.09;4897390;28;112247;-68
2021/11/13 09:24:39;;;;;;;;;;;;;;;13.57;60.48;100647.81;4900980;28;127107;-68
2021/11/13 09:27:05;;;;;;;;;;;;;;;13.62;60.64;100647.75;4897358;28;120575;-58
2021/11/13 09:29:31;;;;;;;;;;;;;;;13.70;60.79;100637.09;4889997;28;120490;-59
2021/11/13 09:31:57;;;;;;;;;;;;;;;13.77;60.58;100641.41;4897809;28;118275;-68
2021/11/13 09:34:23;;;;;;;;;;;;;;;13.84;60.40;100637.28;4897136;28;98177;-68
2021/11/13 09:36:49;;;;;;;;;;;;;;;13.92;60.50;100642.06;4898957;28;122062;-59
2021/11/13 09:39:15;;;;;;;;;;;;;;;14.03;60.23;100633.84;4878404;28;109780;-59
2021/11/13 09:41:41;;;;;;;;;;;;;;;14.14;60.37;100640.78;4900840;28;99044;-59
2021/11/13 09:44:07;;;;;;;;;;;;;;;14.23;60.20;100636.34;4897594;28;98300;-59
2021/11/13 09:46:34;;;;;;;;;;;;;;;14.35;60.25;100641.38;4897066;28;97981;-59
2021/11/13 09:49:00;;;;;;;;;;;;;;;14.44;60.09;100640.44;4878968;28;99838;-68
2021/11/13 09:51:26;;;;;;;;;;;;;;;14.53;60.18;100634.41;4876348;28;98365;-68
2021/11/13 09:53:52;;;;;;;;;;;;;;;14.61;60.24;100634.56;4901122;28;98160;-67
2021/11/13 09:56:18;;;;;;;;;;;;;;;14.68;60.16;100626.91;4884974;28;118577;-59
2021/11/13 09:58:44;;;;;;;;;;;;;;;14.71;60.43;100633.66;4899805;28;125566;-59
2021/11/13 10:01:10;;;;;;;;;;;;;;;14.71;60.70;100633.66;4902210;28;116635;-59
2021/11/13 10:03:36;;;;;;;;;;;;;;;14.69;60.63;100644.78;4891012;28;117551;-68
2021/11/13 10:06:04;;;;;;;;;;;;;;;14.68;60.76;100637.75;4902353;28;123509;-59
2021/11/13 10:08:30;;;;;;;;;;;;;;;14.67;60.91;100633.44;4897633;28;98408;-59
2021/11/13 10:11:05;;;;;;;;;;;;;;;14.69;60.66;100635.84;4894628;28;128806;-67
2021/11/13 10:13:33;;;;;;;;;;;;;;;14.73;61.09;100632.25;4878048;28;98592;-59
2021/11/13 10:16:04;;;;;;;;;;;;;;;14.80;60.80;100626.47;4896486;28;97945;-59
2021/11/13 10:18:32;;;;;;;;;;;;;;;14.91;60.36;100619.81;4899779;28;98162;-59
2021/11/13 10:21:03;;;;;;;;;;;;;;;15.08;60.68;100629.34;4897012;28;98379;-59
2021/11/13 10:23:28;;;;;;;;;;;;;;;15.20;60.53;100616.94;4900661;28;111351;-68
2021/11/13 10:26:01;;;;;;;;;;;;;;;15.27;60.08;100613.88;4903165;28;98318;-59
2021/11/13 10:28:27;;;;;;;;;;;;;;;15.31;60.33;100616.81;4898626;28;98739;-60
2021/11/13 10:31:11;;;;;;;;;;;;;;;15.33;60.35;100610.00;4897209;28;127816;-68
2021/11/13 10:33:37;;;;;;;;;;;;;;;15.34;60.69;100614.31;4884035;28;98129;-68
2021/11/13 10:36:04;;;;;;;;;;;;;;;15.35;61.00;100606.97;4884479;28;98019;-68
2021/11/13 10:38:30;;;;;;;;;;;;;;;15.33;61.12;100606.47;4890009;28;98923;-59
2021/11/13 10:41:00;;;;;;;;;;;;;;;15.31;60.86;100606.75;4902920;28;98731;-59
2021/11/13 10:43:36;;;;;;;;;;;;;;;15.29;61.27;100608.13;4878782;28;98207;-59
2021/11/13 10:46:19;;;;;;;;;;;;;;;15.29;61.31;100610.84;4893965;28;97818;-68
2021/11/13 10:48:48;;;;;;;;;;;;;;;15.29;61.34;100610.84;4895513;28;98698;-59
2021/11/13 10:51:16;;;;;;;;;;;;;;;15.33;61.10;100612.72;4904114;28;98372;-68
2021/11/13 10:53:42;;;;;;;;;;;;;;;15.35;61.34;100613.19;4878924;28;99822;-68
2021/11/13 10:56:14;;;;;;;;;;;;;;;15.36;61.01;100606.66;4885237;28;97814;-69
2021/11/13 10:58:44;;;;;;;;;;;;;;;15.42;60.94;100605.50;4873256;28;98225;-68
2021/11/13 11:01:25;;;;;;;;;;;;;;;15.55;61.21;100611.25;4902755;28;98392;-68
2021/11/13 11:03:52;;;;;;;;;;;;;;;15.68;60.91;100616.00;4898082;28;97911;-59
2021/11/13 11:06:25;;;;;;;;;;;;;;;15.77;61.03;100592.44;4894586;28;97990;-59
2021/11/13 11:08:51;;;;;;;;;;;;;;;15.84;60.71;100602.94;4893584;28;97926;-59
2021/11/13 11:11:29;;;;;;;;;;;;;;;15.88;60.77;100601.22;4892281;28;128874;-60
2021/11/13 11:13:56;;;;;;;;;;;;;;;15.96;60.76;100597.81;4895271;28;98282;-68
2021/11/13 11:16:37;;;;;;;;;;;;;;;16.05;60.72;100596.00;4896916;28;98125;-59
2021/11/13 11:19:13;;;;;;;;;;;;;;;16.13;60.61;100598.03;4894725;28;116426;-59
2021/11/13 11:21:55;;;;;;;;;;;;;;;16.18;60.66;100608.81;4894971;28;99001;-69
2021/11/13 11:24:24;;;;;;;;;;;;;;;16.19;60.97;100596.84;4897130;28;98325;-68
2021/11/13 11:26:56;;;;;;;;;;;;;;;16.23;61.09;100596.22;4895369;28;98149;-68
2021/11/13 11:29:22;;;;;;;;;;;;;;;16.22;60.91;100587.25;4894231;28;98470;-68
2021/11/13 11:31:53;;;;;;;;;;;;;;;16.22;60.98;100589.97;4896696;28;98802;-68
2021/11/13 11:34:22;;;;;;;;;;;;;;;16.24;61.19;100590.50;4895443;28;97840;-68
2021/11/13 11:36:48;;;;;;;;;;;;;;;16.25;61.42;100594.00;4899874;28;97887;-68
2021/11/13 11:39:14;;;;;;;;;;;;;;;16.24;61.22;100582.34;4890842;28;98232;-68
2021/11/13 11:41:40;;;;;;;;;;;;;;;16.25;61.23;100589.38;4861437;28;100569;-59
2021/11/13 11:44:06;;;;;;;;;;;;;;;16.25;61.55;100585.84;4892595;28;115606;-68
2021/11/13 11:46:32;;;;;;;;;;;;;;;16.24;61.52;100584.25;4883624;28;124360;-69
2021/11/13 11:48:59;;;;;;;;;;;;;;;16.21;61.65;100582.94;4897457;28;127008;-68
2021/11/13 11:51:25;;;;;;;;;;;;;;;16.18;61.47;100587.03;4882292;28;98745;-68
2021/11/13 11:53:51;;;;;;;;;;;;;;;16.16;61.66;100583.84;4900404;28;122129;-66
2021/11/13 11:56:17;;;;;;;;;;;;;;;16.19;61.57;100590.56;4866915;28;98064;-59
2021/11/13 11:58:43;;;;;;;;;;;;;;;16.24;61.74;100587.78;4891899;28;115524;-59
2021/11/13 12:01:24;;;;;;;;;;;;;;;16.30;61.66;100586.53;4897743;28;127848;-59
2021/11/13 12:03:50;;;;;;;;;;;;;;;16.34;61.35;100582.09;4894404;28;98044;-68
2021/11/13 12:06:16;;;;;;;;;;;;;;;16.38;61.51;100582.31;4898228;28;123268;-59
2021/11/13 12:08:42;;;;;;;;;;;;;;;16.40;61.37;100583.63;4900351;28;98529;-59
2021/11/13 12:11:20;;;;;;;;;;;;;;;16.41;61.45;100584.44;4900169;28;127208;-59
2021/11/13 12:13:47;;;;;;;;;;;;;;;16.37;61.59;100584.22;4875685;28;98097;-68
2021/11/13 12:16:21;;;;;;;;;;;;;;;16.40;61.79;100588.28;4901248;28;97935;-59
2021/11/13 12:18:47;;;;;;;;;;;;;;;16.41;61.75;100589.88;4895600;28;98933;-59
2021/11/13 12:21:14;;;;;;;;;;;;;;;16.42;61.52;100586.84;4892378;28;126997;-68
2021/11/13 12:23:43;;;;;;;;;;;;;;;16.44;61.46;100592.78;4874570;28;116817;-59
2021/11/13 12:26:12;;;;;;;;;;;;;;;16.46;61.76;100589.75;4895369;28;98469;-59
2021/11/13 12:28:44;;;;;;;;;;;;;;;16.50;61.71;100584.53;4900143;28;99193;-68